Amagi Galaxy — V7VE9 — position and weather

sailwx.info

Track history (hours):
 
Tides and Currents Weather Stations Pressure Air Temp Water Temp Dewpoint Dewpoint Depression Visibility Wind Speed Wind Dir Waves Ship Positions

Amagi Galaxy

Last reported at 2015-Mar-06 15:34 UTC. Time now 2015-Mar-06 16:03 UTC.
Position N 37°52' W 122°25'.

Length 152 m; draft 7.3 m.

Type: Ship (hazmat cat B). MMSI: 538004105.

Date/timePositionNaut miles runAvg speedWind from/ knotsBaromVisibWave heightAir tempDewpointWater temp
2015-Mar-06 15:34N 37°52' W 122°25'1111.4
2015-Mar-06 14:34N 37°46' W 122°37'9 9.3
2015-Mar-06 13:34N 37°40' W 122°47'1010.2
2015-Mar-06 12:33N 37°35' W 122°57'1111.4
2015-Mar-06 11:34N 37°30' W 123°10'9 9.0
2015-Mar-06 10:31N 37°29' W 123°22'1312.4
2015-Mar-06 09:30N 37°31' W 123°38'1213.0
2015-Mar-06 08:33N 37°34' W 123°53'1413.8
2015-Mar-06 07:33N 37°39' W 124°09'1313.3
2015-Mar-06 06:33N 37°45' W 124°24'1313.4
2015-Mar-06 05:33N 37°53' W 124°38'1413.6
2015-Mar-06 04:34N 37°60' W 124°53'1413.5
2015-Mar-06 03:33N 38°10' W 125°05'1413.7
2015-Mar-06 02:33N 38°21' W 125°15'1413.9
2015-Mar-06 01:33N 38°32' W 125°25'  
2015-Mar-02 02:07N 48°07' W 125°21'712.1
2015-Mar-02 01:31N 48°13' W 125°15'1312.3
2015-Mar-02 00:28N 48°25' W 125°07'1011.0
2015-Mar-01 23:34N 48°31' W 124°55'1212.1
2015-Mar-01 22:33N 48°29' W 124°36'1212.2
2015-Mar-01 21:34N 48°24' W 124°20'1312.7
2015-Mar-01 20:33N 48°19' W 124°02'1413.6
2015-Mar-01 19:33N 48°16' W 123°42'1212.1
2015-Mar-01 18:33N 48°12' W 123°25'9 9.3
2015-Mar-01 17:33N 48°13' W 123°12'1414.5
2015-Mar-01 16:33N 48°22' W 122°54'1413.7
2015-Mar-01 15:33N 48°31' W 122°39'3 2.7
2015-Mar-01 14:31N 48°31' W 122°35'0 0.0
2015-Feb-28 10:16N 48°31' W 122°35'0 0.0
2015-Feb-28 07:31N 48°31' W 122°35'1 0.7
2015-Feb-28 06:33N 48°31' W 122°35'8 8.4
2015-Feb-28 05:33N 48°39' W 122°40'1413.8
2015-Feb-28 04:33N 48°48' W 122°56'1414.2
2015-Feb-28 03:33N 48°57' W 123°13'1413.5
2015-Feb-28 02:33N 49°08' W 123°23'1313.2
2015-Feb-28 01:33N 49°19' W 123°12'5 5.3
2015-Feb-28 00:31N 49°17' W 123°04'0 0.0
2015-Feb-27 23:31N 49°17' W 123°04'0 0.0
2015-Feb-27 22:31N 49°17' W 123°04'0 0.0
2015-Feb-27 21:31N 49°17' W 123°04'0 0.0
2015-Feb-27 20:31N 49°17' W 123°04'0 0.0
2015-Feb-27 19:31N 49°17' W 123°04'0 0.0
2015-Feb-27 18:31N 49°17' W 123°04'0 0.0
2015-Feb-27 17:31N 49°17' W 123°04'0 0.0
2015-Feb-27 16:31N 49°17' W 123°04'0 0.0
2015-Feb-27 15:31N 49°17' W 123°04'0 0.0
2015-Feb-27 14:31N 49°17' W 123°04'0 0.0
2015-Feb-27 13:31N 49°17' W 123°04'0 0.0
2015-Feb-27 12:31N 49°17' W 123°04'0 0.0
2015-Feb-27 11:31N 49°17' W 123°04'0 0.0
2015-Feb-27 10:31N 49°17' W 123°04'0 0.0
2015-Feb-27 09:31N 49°17' W 123°04'0 0.0
2015-Feb-27 08:31N 49°17' W 123°04'0 0.0
2015-Feb-27 07:31N 49°17' W 123°04'0 0.0
2015-Feb-27 06:31N 49°17' W 123°04'0 0.0
2015-Feb-27 05:31N 49°17' W 123°04'0 0.0
2015-Feb-27 04:31N 49°17' W 123°04'0 0.0
2015-Feb-27 03:31N 49°17' W 123°04'0 0.0
2015-Feb-27 02:31N 49°17' W 123°04'0 0.0
2015-Feb-27 01:31N 49°17' W 123°04'0 0.0
2015-Feb-27 00:31N 49°17' W 123°04'0 0.0
2015-Feb-26 23:31N 49°17' W 123°04'0 0.0
2015-Feb-26 22:31N 49°17' W 123°04'0 0.0
2015-Feb-26 21:31N 49°17' W 123°04'0 0.0
2015-Feb-26 20:31N 49°17' W 123°04'0 0.0
2015-Feb-26 19:31N 49°17' W 123°04'0 0.0
2015-Feb-26 18:31N 49°17' W 123°04'0 0.0
2015-Feb-26 17:31N 49°17' W 123°04'0 0.0
2015-Feb-26 16:31N 49°17' W 123°04'0 0.0
2015-Feb-26 15:31N 49°17' W 123°04'0 0.0
2015-Feb-26 14:31N 49°17' W 123°04'0 0.0
2015-Feb-26 13:31N 49°17' W 123°04'0 0.0
2015-Feb-26 12:31N 49°17' W 123°04'0 0.0
2015-Feb-26 11:31N 49°17' W 123°04'0 0.0
2015-Feb-26 10:31N 49°17' W 123°04'0 0.0
2015-Feb-26 09:31N 49°17' W 123°04'0 0.0
2015-Feb-26 08:28N 49°17' W 123°04'0 0.0
2015-Feb-26 07:31N 49°17' W 123°04'0 0.0
2015-Feb-26 06:31N 49°17' W 123°04'0 0.0
2015-Feb-26 05:31N 49°17' W 123°04'0 0.0
2015-Feb-26 04:31N 49°17' W 123°04'0 0.0
2015-Feb-26 03:31N 49°17' W 123°04'0 0.0
2015-Feb-26 02:31N 49°17' W 123°04'0 0.0
2015-Feb-26 01:31N 49°17' W 123°04'0 0.0
2015-Feb-26 00:31N 49°17' W 123°04'0 0.0
2015-Feb-25 23:31N 49°17' W 123°04'0 0.0
2015-Feb-25 22:31N 49°17' W 123°04'0 0.0
2015-Feb-25 21:31N 49°17' W 123°04'0 0.0
2015-Feb-25 20:31N 49°17' W 123°04'0 0.0
2015-Feb-25 19:31N 49°17' W 123°04'0 0.0
2015-Feb-25 18:31N 49°17' W 123°04'0 0.0
2015-Feb-25 17:31N 49°17' W 123°04'0 0.0
2015-Feb-25 16:31N 49°17' W 123°04'0 0.0
2015-Feb-25 15:31N 49°17' W 123°04'0 0.0
2015-Feb-25 14:31N 49°17' W 123°04'0 0.0
2015-Feb-25 13:31N 49°17' W 123°04'0 0.0
2015-Feb-25 12:31N 49°17' W 123°04'0 0.0
2015-Feb-25 11:31N 49°17' W 123°04'0 0.0
2015-Feb-25 10:31N 49°17' W 123°04'0 0.0
2015-Feb-25 09:31N 49°17' W 123°04'0 0.0
2015-Feb-25 08:31N 49°17' W 123°04'0 0.0
2015-Feb-25 07:31N 49°17' W 123°04'0 0.0
2015-Feb-25 06:31N 49°17' W 123°04'0 0.0
2015-Feb-25 05:31N 49°17' W 123°04'0 0.0
2015-Feb-25 04:31N 49°17' W 123°04'0 0.0
2015-Feb-25 03:31N 49°17' W 123°04'0 0.0
2015-Feb-25 02:31N 49°17' W 123°04'0 0.0
2015-Feb-25 01:31N 49°17' W 123°04'0 0.0
2015-Feb-25 00:31N 49°17' W 123°04'0 0.0
2015-Feb-24 23:31N 49°17' W 123°04'0 0.0
2015-Feb-24 22:31N 49°17' W 123°04'0 0.0
2015-Feb-24 21:31N 49°17' W 123°04'0 0.0
2015-Feb-24 20:31N 49°17' W 123°04'0 0.0
2015-Feb-24 19:31N 49°17' W 123°04'0 0.0
2015-Feb-24 18:31N 49°17' W 123°04'0 0.0
2015-Feb-24 17:31N 49°17' W 123°04'0 0.0
2015-Feb-24 16:31N 49°17' W 123°04'  
Track history (hours):
 
Tides and Currents Weather Stations Pressure Air Temp Water Temp Dewpoint Dewpoint Depression Visibility Wind Speed Wind Dir Waves Ship Positions

Amagi Galaxy

Last reported at 2015-Mar-06 15:34 UTC. Time now 2015-Mar-06 16:03 UTC.
Position N 37°52' W 122°25'.

Length 152 m; draft 7.3 m.

Type: Ship (hazmat cat B). MMSI: 538004105.

Date/timePositionNaut miles runAvg speedWind from/ knotsBaromVisibWave heightAir tempDewpointWater temp
2015-Mar-06 15:34N 37°52' W 122°25'1111.4
2015-Mar-06 14:34N 37°46' W 122°37'9 9.3
2015-Mar-06 13:34N 37°40' W 122°47'1010.2
2015-Mar-06 12:33N 37°35' W 122°57'1111.4
2015-Mar-06 11:34N 37°30' W 123°10'9 9.0
2015-Mar-06 10:31N 37°29' W 123°22'1312.4
2015-Mar-06 09:30N 37°31' W 123°38'1213.0
2015-Mar-06 08:33N 37°34' W 123°53'1413.8
2015-Mar-06 07:33N 37°39' W 124°09'1313.3
2015-Mar-06 06:33N 37°45' W 124°24'1313.4
2015-Mar-06 05:33N 37°53' W 124°38'1413.6
2015-Mar-06 04:34N 37°60' W 124°53'1413.5
2015-Mar-06 03:33N 38°10' W 125°05'1413.7
2015-Mar-06 02:33N 38°21' W 125°15'1413.9
2015-Mar-06 01:33N 38°32' W 125°25'  
2015-Mar-02 02:07N 48°07' W 125°21'712.1
2015-Mar-02 01:31N 48°13' W 125°15'1312.3
2015-Mar-02 00:28N 48°25' W 125°07'1011.0
2015-Mar-01 23:34N 48°31' W 124°55'1212.1
2015-Mar-01 22:33N 48°29' W 124°36'1212.2
2015-Mar-01 21:34N 48°24' W 124°20'1312.7
2015-Mar-01 20:33N 48°19' W 124°02'1413.6
2015-Mar-01 19:33N 48°16' W 123°42'1212.1
2015-Mar-01 18:33N 48°12' W 123°25'9 9.3
2015-Mar-01 17:33N 48°13' W 123°12'1414.5
2015-Mar-01 16:33N 48°22' W 122°54'1413.7
2015-Mar-01 15:33N 48°31' W 122°39'3 2.7
2015-Mar-01 14:31N 48°31' W 122°35'0 0.0
2015-Feb-28 10:16N 48°31' W 122°35'0 0.0
2015-Feb-28 07:31N 48°31' W 122°35'1 0.7
2015-Feb-28 06:33N 48°31' W 122°35'8 8.4
2015-Feb-28 05:33N 48°39' W 122°40'1413.8
2015-Feb-28 04:33N 48°48' W 122°56'1414.2
2015-Feb-28 03:33N 48°57' W 123°13'1413.5
2015-Feb-28 02:33N 49°08' W 123°23'1313.2
2015-Feb-28 01:33N 49°19' W 123°12'5 5.3
2015-Feb-28 00:31N 49°17' W 123°04'0 0.0
2015-Feb-27 23:31N 49°17' W 123°04'0 0.0
2015-Feb-27 22:31N 49°17' W 123°04'0 0.0
2015-Feb-27 21:31N 49°17' W 123°04'0 0.0
2015-Feb-27 20:31N 49°17' W 123°04'0 0.0
2015-Feb-27 19:31N 49°17' W 123°04'0 0.0
2015-Feb-27 18:31N 49°17' W 123°04'0 0.0
2015-Feb-27 17:31N 49°17' W 123°04'0 0.0
2015-Feb-27 16:31N 49°17' W 123°04'0 0.0
2015-Feb-27 15:31N 49°17' W 123°04'0 0.0
2015-Feb-27 14:31N 49°17' W 123°04'0 0.0
2015-Feb-27 13:31N 49°17' W 123°04'0 0.0
2015-Feb-27 12:31N 49°17' W 123°04'0 0.0
2015-Feb-27 11:31N 49°17' W 123°04'0 0.0
2015-Feb-27 10:31N 49°17' W 123°04'0 0.0
2015-Feb-27 09:31N 49°17' W 123°04'0 0.0
2015-Feb-27 08:31N 49°17' W 123°04'0 0.0
2015-Feb-27 07:31N 49°17' W 123°04'0 0.0
2015-Feb-27 06:31N 49°17' W 123°04'0 0.0
2015-Feb-27 05:31N 49°17' W 123°04'0 0.0
2015-Feb-27 04:31N 49°17' W 123°04'0 0.0
2015-Feb-27 03:31N 49°17' W 123°04'0 0.0
2015-Feb-27 02:31N 49°17' W 123°04'0 0.0
2015-Feb-27 01:31N 49°17' W 123°04'0 0.0
2015-Feb-27 00:31N 49°17' W 123°04'0 0.0
2015-Feb-26 23:31N 49°17' W 123°04'0 0.0
2015-Feb-26 22:31N 49°17' W 123°04'0 0.0
2015-Feb-26 21:31N 49°17' W 123°04'0 0.0
2015-Feb-26 20:31N 49°17' W 123°04'0 0.0
2015-Feb-26 19:31N 49°17' W 123°04'0 0.0
2015-Feb-26 18:31N 49°17' W 123°04'0 0.0
2015-Feb-26 17:31N 49°17' W 123°04'0 0.0
2015-Feb-26 16:31N 49°17' W 123°04'0 0.0
2015-Feb-26 15:31N 49°17' W 123°04'0 0.0
2015-Feb-26 14:31N 49°17' W 123°04'0 0.0
2015-Feb-26 13:31N 49°17' W 123°04'0 0.0
2015-Feb-26 12:31N 49°17' W 123°04'0 0.0
2015-Feb-26 11:31N 49°17' W 123°04'0 0.0
2015-Feb-26 10:31N 49°17' W 123°04'0 0.0
2015-Feb-26 09:31N 49°17' W 123°04'0 0.0
2015-Feb-26 08:28N 49°17' W 123°04'0 0.0
2015-Feb-26 07:31N 49°17' W 123°04'0 0.0
2015-Feb-26 06:31N 49°17' W 123°04'0 0.0
2015-Feb-26 05:31N 49°17' W 123°04'0 0.0
2015-Feb-26 04:31N 49°17' W 123°04'0 0.0
2015-Feb-26 03:31N 49°17' W 123°04'0 0.0
2015-Feb-26 02:31N 49°17' W 123°04'0 0.0
2015-Feb-26 01:31N 49°17' W 123°04'0 0.0
2015-Feb-26 00:31N 49°17' W 123°04'0 0.0
2015-Feb-25 23:31N 49°17' W 123°04'0 0.0
2015-Feb-25 22:31N 49°17' W 123°04'0 0.0
2015-Feb-25 21:31N 49°17' W 123°04'0 0.0
2015-Feb-25 20:31N 49°17' W 123°04'0 0.0
2015-Feb-25 19:31N 49°17' W 123°04'0 0.0
2015-Feb-25 18:31N 49°17' W 123°04'0 0.0
2015-Feb-25 17:31N 49°17' W 123°04'0 0.0
2015-Feb-25 16:31N 49°17' W 123°04'0 0.0
2015-Feb-25 15:31N 49°17' W 123°04'0 0.0
2015-Feb-25 14:31N 49°17' W 123°04'0 0.0
2015-Feb-25 13:31N 49°17' W 123°04'0 0.0
2015-Feb-25 12:31N 49°17' W 123°04'0 0.0
2015-Feb-25 11:31N 49°17' W 123°04'0 0.0
2015-Feb-25 10:31N 49°17' W 123°04'0 0.0
2015-Feb-25 09:31N 49°17' W 123°04'0 0.0
2015-Feb-25 08:31N 49°17' W 123°04'0 0.0
2015-Feb-25 07:31N 49°17' W 123°04'0 0.0
2015-Feb-25 06:31N 49°17' W 123°04'0 0.0
2015-Feb-25 05:31N 49°17' W 123°04'0 0.0
2015-Feb-25 04:31N 49°17' W 123°04'0 0.0
2015-Feb-25 03:31N 49°17' W 123°04'0 0.0
2015-Feb-25 02:31N 49°17' W 123°04'0 0.0
2015-Feb-25 01:31N 49°17' W 123°04'0 0.0
2015-Feb-25 00:31N 49°17' W 123°04'0 0.0
2015-Feb-24 23:31N 49°17' W 123°04'0 0.0
2015-Feb-24 22:31N 49°17' W 123°04'0 0.0
2015-Feb-24 21:31N 49°17' W 123°04'0 0.0
2015-Feb-24 20:31N 49°17' W 123°04'0 0.0
2015-Feb-24 19:31N 49°17' W 123°04'0 0.0
2015-Feb-24 18:31N 49°17' W 123°04'0 0.0
2015-Feb-24 17:31N 49°17' W 123°04'0 0.0
2015-Feb-24 16:31N 49°17' W 123°04'  

Dump ship's entire track history